Onweer radar Meer informatie blitzortung!


Regen radar Meer informatie rain snow radar


Andere websites:

Template documentation
and downloads

And another site

Weather-Template Info-Forum

Webcam-Havenmond

Webcam-Havenkantoor

Webcam-Werkhaven

Webcam-Westhaven



Het weer levert geen direct gevaar op.    Er zijn geen waarschuwingen afgegeven.

METAR rapporten vliegvelden

   
EBAW - Antwerp
Gewijzigd: 24-04-2019 19:50
Light Showers, Regen, Gedeeltelijk bewolkt  
Light Showers, Regen, Gedeeltelijk bewolkt  
   Wind: ZO 16.7 km/h
Wind: ZO 16.7 km/h
Temperatuur: 13°C
Dauwpunt: 11°C
Vochtigheid: 88%
Barometer: 1000 hPa
Bewolking: Gedeeltelijk bewolkt
Zicht: meer dan 10 km
Bewolking: Gedeeltelijk bewolkt 4000 ft
EBAW 241750Z 14009KT 100V170 9999 -SHRA SCT040 13/11 Q1000 TEMPO 4500 SHRA
EBLG - Li├Ęge
Gewijzigd: 24-04-2019 19:50
Regenbuien, Regen, Licht bewolkt  
Regenbuien, Regen, Licht bewolkt  
   Wind: ZZO 20.4 km/h
Wind: ZZO 20.4 km/h
Temperatuur: 11°C
Dauwpunt: 9°C
Vochtigheid: 88%
Barometer: 1003 hPa
Bewolking: Licht bewolkt
Zicht: meer dan 10 km
Bewolking: Licht bewolkt 2000 ft
EBLG 241750Z 15011KT 9999 SHRA FEW020 11/09 Q1003 TEMPO 18025G35KT 4000 SHRA
EBCV - Mons/Bergen
Gewijzigd: 24-04-2019 20:14
Motregen, Grotendeels bewolkt  
Motregen, Grotendeels bewolkt  
   Wind: Zuiden 13 km/h
Wind: Zuiden 13 km/h
Temperatuur: 14°C
Dauwpunt: 11°C
Vochtigheid: 82%
Barometer: 1001 hPa
Bewolking: Grotendeels bewolkt
Zicht: meer dan 10 km
Bewolking: Grotendeels bewolkt 2400 ft,
Grotendeels bewolkt 7800 ft
EBCV 241814Z AUTO 19007KT 9999 DZ BKN024/// BKN078/// 14/11 Q1001 WHT
EHBK - Maastricht
Gewijzigd: 24-04-2019 19:55
Regenbuien, Regen, Grotendeels bewolkt  
Regenbuien, Regen, Grotendeels bewolkt  
   Wind: Zuiden 29.6 km/h
Wind: Zuiden 29.6 km/h
Temperatuur: 11°C
Dauwpunt: 9°C
Vochtigheid: 88%
Barometer: 1003 hPa
Bewolking: Grotendeels bewolkt
Zicht: meer dan 10 km
Bewolking: Grotendeels bewolkt 1500 ft
EHBK 241755Z AUTO 18016KT 150V220 9999 SHRA BKN015CB 11/09 Q1003 REUP TEMPO 19020G30KT 7000 RA SHRA SCT040CB
ELLX - Luxemburg
Gewijzigd: 24-04-2019 19:50
Wat regen mogelijk, Grotendeels bewolkt  
Wat regen mogelijk, Grotendeels bewolkt  
   Wind: ZO 16.7 km/h
Wind: ZO 16.7 km/h
Temperatuur: 9°C
Voelt als: 7°C
Dauwpunt: 7°C
Vochtigheid: 87%
Barometer: 1005 hPa
Bewolking: Grotendeels bewolkt
Zicht: meer dan 10 km
Bewolking: Licht bewolkt 1000 ft,
Grotendeels bewolkt 3800 ft
ELLX 241750Z 14009KT 9999 -RA FEW010 BKN038 09/07 Q1005 NOSIG
EBOS - Oostende
Gewijzigd: 24-04-2019 19:50
Licht bewolkt  
Licht bewolkt  
   Wind: ZZW 11.1 km/h
Wind: ZZW 11.1 km/h
Temperatuur: 14°C
Dauwpunt: 9°C
Vochtigheid: 72%
Barometer: 999 hPa
Bewolking: Licht bewolkt
Zicht: meer dan 10 km
Bewolking: Licht bewolkt 3100 ft
EBOS 241750Z 21006KT 9999 FEW031 14/09 Q0999 NOSIG

Script ontwikkeld door  Saratoga-weather.org Aangepast voor de template door  Weerstation Leuven

U vindt ons ook hier:

Het Weer Aktueel

European Weather Network

WeatherCloud

Weather Underground

Benelux Weer Netwerk

AWEKAS

Apparatuur in gebruik:

Weerstation
Davis VP2

Weerprogramma
Meteohub

Weercomputer
My Computer

Webleverancier
My provider

Davis VP2

Meteohub

My Computer

My provider